Harry Richardson

Recruteur en chef - Manchester United
16 Sept 2027
Jeudi
Processus

Personnalité

Adaptabilité (16) Ambition (15) Controverse (7) Loyauté (4) Pression (13) Professionnalisme (16) Sportivité (8) Tempérament (17)

Profil

Style d'entraînement Démocratique
Diplôme National B
Détermination 10
Gestion des joueurs 9
Motivation 12
Discipline 11
Satisfaction professionnelle
86%
Fatigue
0%
Rôle Recruteur en chef
Salaire 120.2K p/s
Contrat 14.03.2029

Performance

Comportement Bon
Efficacité de l'entraînement
44%
Développement des joueurs
60%
Prévention des blessures
80%
Mise en place tactique
65%

Événements récents

A participé à une réunion de recrutement maintenant
A recommandé une cible de transfert maintenant
A recommandé une cible de transfert maintenant
A recommandé une cible de transfert maintenant
A recommandé une cible de transfert 7j
A recommandé une cible de transfert 7j
A recommandé une cible de transfert 7j
A participé à une réunion de recrutement 7j

Suivi en cours

126
Joueur Club Statut Capacité Confiance Observé Dernière observation Dernier vote
Wilson Odobert Bristol City Négociation 147 / 155 40% 1 30.08.2027 -
Kota Tawaratsumida River Plate Actif 139 / 154 40% 1 30.08.2027 -
Archie Gray Derby County Actif 145 / 147 40% 1 30.08.2027 -
Kobbie Mainoo Leicester City Actif 152 / 163 40% 1 24.08.2027 -
Nicolò Savona Nottingham Forest Actif 144 / 144 40% 1 24.08.2027 -
Moisés Caicedo Chelsea Actif 171 / 177 40% 18 16.08.2027 -
Gabriel Martinelli Brighton Actif 164 / 168 40% 3 16.08.2027 -
Joško Gvardiol Napoli Négociation 169 / 175 40% 4 16.08.2027 -
Jesús Rodríguez Como Actif 147 / 158 40% 3 12.08.2027 -
Jayden Addai Como Actif 138 / 147 40% 2 12.08.2027 -
Francisco Conceição Juventus Actif 162 / 154 40% 11 11.08.2027 Observer
Antonio Vergara Napoli Actif 140 / 139 40% 1 11.08.2027 -
Alex Amorim Genoa Actif 133 / 144 40% 1 11.08.2027 -
Matías Soulé AS Roma Actif 160 / 159 40% 8 10.08.2027 -
Alex Scott Bournemouth Actif 154 / 163 40% 1 10.08.2027 -
Christ Inao Oulaï Fiorentina Actif 137 / 139 40% 1 10.08.2027 -
Lucas Bergvall Tottenham Actif 146 / 163 40% 1 10.08.2027 -
Alessandro Bianco Modena Actif 135 / 134 40% 1 10.08.2027 -
Kevin Fulham Actif 154 / 158 40% 4 02.08.2027 -
Ilyas Ansah Hull City Actif 136 / 133 40% 3 02.08.2027 -
Fer López Wolverhampton Perdu 138 / 135 40% 1 02.08.2027 -
Shea Charles Southampton Actif 139 / 133 40% 3 01.08.2027 -
Assane Diao Lazio Actif 148 / 151 40% 5 31.07.2027 -
Yehor Yarmoliuk Brentford Actif 155 / 158 40% 1 31.07.2027 -
Toby Collyer West Bromwich Albion Actif 133 / 141 40% 1 31.07.2027 -
Kwadwo Baah Watford Actif 132 / 131 40% 3 30.07.2027 -
Malick Fofana Sunderland Refusé 150 / 145 40% 2 30.07.2027 Plus d'infos
Tom Fellows Southampton Actif 137 / 124 40% 1 30.07.2027 -
Christos Mouzakitis Hull City Actif 134 / 146 40% 4 29.07.2027 -
Yankuba Minteh Brighton Refusé 150 / 154 40% 1 29.07.2027 Plus d'infos
Xavi Simons Tottenham Actif 159 / 161 40% 13 28.07.2027 Observer
Levi Colwill Chelsea Actif 160 / 164 40% 26 26.07.2027 -
Isaac Price West Bromwich Albion Actif 134 / 142 40% 1 26.07.2027 -
Malo Gusto Chelsea Actif 151 / 161 40% 1 26.07.2027 -
Christ Inao Oulaï Fiorentina Perdu 141 / 146 40% 1 26.07.2027 -
Andre Brooks Sheffield United Actif 129 / 127 40% 1 23.07.2027 -
Ben Gannon Doak Bournemouth Actif 143 / 151 40% 3 22.07.2027 -
Jofre Torrents Ajax Actif 125 / 132 40% 2 22.07.2027 -
Christ Inao Oulaï Fiorentina Perdu 140 / 150 40% 1 22.07.2027 -
Leo Castledine Middlesbrough Actif 130 / 135 40% 3 20.07.2027 -
Oscar Schwartau Norwich City Actif 125 / 124 40% 3 20.07.2027 -
Sascha Britschgi Padova Actif 120 / 120 40% 2 20.07.2027 -
Davide Bartesaghi AC Milan Actif 132 / 131 40% 3 19.07.2027 -
Matheus Gonçalves Al-Ahli Actif 135 / 122 40% 1 19.07.2027 -
Caleb Yirenkyi Coventry City Actif 141 / 136 40% 2 18.07.2027 -
Alphadjo Cissé Como Actif 125 / 130 40% 6 18.07.2027 -
Johan Manzambi Newcastle United Actif 147 / 149 40% 2 17.07.2027 -
Abdul Fatawu Leicester City Actif 144 / 132 40% 1 17.07.2027 -
Shea Lacey Wolverhampton Actif 125 / 133 40% 4 13.07.2027 -
Ousmane Diomande Nottingham Forest Actif 154 / 153 40% 15 12.07.2027 -
Josh King Chelsea Actif 145 / 154 40% 4 12.07.2027 -
Rodrigo Mora AS Roma Actif 142 / 147 40% 1 12.07.2027 -
Kirill Glebov CSKA Moscow Actif 131 / 125 40% 1 10.07.2027 -
Rayan Bournemouth Actif 134 / 152 40% 1 06.07.2027 -
Mfundo Vilakazi Kaizer Chiefs Actif 116 / 129 40% 1 06.07.2027 -
Kutlwano Letlhaku Ajax Cape Town Actif 123 / 113 40% 1 03.07.2027 -
Jorrel Hato Chelsea Refusé 152 / 161 86% 2 02.07.2027 Refuser
Othmane Maamma Watford Actif 127 / 133 40% 1 30.06.2027 -
Jakub Kiwior Everton Actif 158 / 167 40% 4 27.06.2027 -
Wesley Fofana Chelsea Perdu 162 / 161 40% 19 22.06.2027 Observer
Curtis Jones Inter Actif 162 / 151 40% 15 22.06.2027 -
Nico González Newcastle United Actif 162 / 162 40% 33 21.06.2027 -
Manu Koné AS Roma Perdu 168 / 166 40% 10 21.06.2027 -
Morgan Rogers Chelsea Actif 164 / 167 40% 17 21.06.2027 -
Declan Rice Arsenal Actif 188 / 178 40% 6 21.06.2027 -
Riccardo Calafiori Hull City Actif 154 / 163 40% 2 21.06.2027 -
Boubacar Kamara Aston Villa Actif 164 / 155 40% 21 19.06.2027 -
Jurriën Timber Arsenal Actif 168 / 162 40% 12 18.06.2027 -
Khéphren Thuram Aston Villa Actif 161 / 152 40% 2 18.06.2027 -
William Saliba Arsenal Actif 174 / 172 40% 21 17.06.2027 -
Jan Paul van Hecke Tottenham Actif 155 / 164 40% 16 17.06.2027 -
Kiernan Dewsbury-Hall Everton Actif 157 / 143 40% 9 16.06.2027 -
Sandro Tonali Tottenham Actif 175 / 182 40% 27 13.06.2027 -
Pierre Kalulu Juventus Perdu 156 / 150 40% 6 13.06.2027 -
Alejandro Balde Barcelona Actif 160 / 164 40% 3 12.06.2027 -
Amadou Onana Aston Villa Actif 158 / 162 40% 19 11.06.2027 -
Sven Botman Newcastle United Perdu 162 / 152 40% 10 07.06.2027 -
Kostantis Tzolakis Hull City Perdu 136 / 139 67% 1 01.06.2027 -
Iliman N'Diaye Everton Actif 157 / 153 40% 7 31.05.2027 Observer
Kenan Yıldız Juventus Actif 162 / 173 40% 9 29.05.2027 -
Vinícius Júnior Arsenal Actif 179 / 175 40% 1 29.05.2027 -
Nicolas Jackson Aston Villa Actif 153 / 143 40% 11 28.05.2027 -
Mohammed Kudus Tottenham Actif 162 / 158 40% 8 27.05.2027 -
Kai Havertz Arsenal Actif 164 / 164 40% 10 24.05.2027 -
Tyler Adams Bournemouth Actif 156 / 143 40% 17 23.05.2027 -
Quinten Timber Crystal Palace Actif 152 / 145 40% 9 21.05.2027 -
Gabriel Arsenal Actif 176 / 182 40% 13 21.05.2027 Observer
Callum Hudson-Odoi Nottingham Forest Actif 151 / 154 40% 12 21.05.2027 -
Jacob Ramsey Newcastle United Actif 156 / 148 40% 14 21.05.2027 -
Alexis Saelemaekers AC Milan Actif 155 / 160 40% 7 19.05.2027 -
Xaver Schlager Nottingham Forest Actif 148 / 161 40% 12 18.05.2027 -
Óscar Mingueza Crystal Palace Actif 150 / 147 40% 5 18.05.2027 -
Hector Ramirez Newcastle United Actif 153 / 161 40% 30 10.05.2027 -
João Pedro Chelsea Actif 155 / 160 40% 8 07.05.2027 -
Konstantin Tyukavin Inter Actif 136 / 130 40% 1 03.05.2027 -
Ricardo Pepi Chelsea Actif 144 / 141 40% 1 03.05.2027 -
Bruno Guimarães Arsenal Actif 169 / 162 40% 15 24.04.2027 -
Jarrad Branthwaite Everton Actif 157 / 147 40% 12 24.04.2027 -
Adrien Truffert Bournemouth Actif 153 / 151 40% 5 24.04.2027 -
Benjamin White Arsenal Actif 160 / 159 40% 10 12.04.2027 -
James Maddison Tottenham Actif 162 / 161 40% 7 06.04.2027 -
Tino Livramento Newcastle United Actif 156 / 166 40% 3 05.04.2027 -
Jarrod Bowen West Ham United Actif 152 / 144 40% 5 28.03.2027 -
Leon Goretzka Aston Villa Actif 159 / 160 40% 7 07.03.2027 -
Reece James Chelsea Actif 168 / 166 40% 11 28.02.2027 -
Francisco Trincão Zenit Actif 156 / 158 40% 1 27.01.2027 -
Raúl Rangel Sporting CP Actif 132 / 132 66% 1 01.01.2027 Approuver
Stanislav Agkatsev Sunderland Négociation 132 / 133 66% 1 01.01.2027 Approuver
Marvin Keller Bayer Leverkusen Négociation 136 / 137 67% 1 01.01.2027 Approuver
Dmytro Riznyk Cruz Azul Négociation 137 / 137 66% 1 01.01.2027 Approuver
James Garner Everton Actif 152 / 159 40% 4 30.12.2026 -
Warren Zaïre-Emery Paris Saint-Germain Actif 157 / 161 40% 5 23.12.2026 -
Mikel Merino Arsenal Actif 154 / 159 40% 2 21.12.2026 -
Andrew Robertson Tottenham Actif 155 / 161 40% 6 15.12.2026 -
Ian Maatsen Aston Villa Actif 153 / 160 40% 3 11.12.2026 -
Murillo Nottingham Forest Actif 153 / 156 40% 7 06.12.2026 -
Federico Dimarco Inter Actif 161 / 161 40% 1 30.11.2026 -
Nicolò Rovella Lazio Actif 148 / 160 40% 2 17.11.2026 -
Conor Gallagher Tottenham Actif 150 / 148 40% 6 10.11.2026 -
Malick Thiaw West Ham United Actif 154 / 157 40% 2 12.10.2026 -
Matty Cash Aston Villa Actif 150 / 144 40% 3 09.10.2026 -
Mauro Arambarri River Plate Actif 156 / 136 40% 2 23.09.2026 -
Ezri Konsa Arsenal Actif 148 / 150 40% 2 18.09.2026 -
Fabián Paris Saint-Germain Actif 167 / 162 40% 1 15.09.2026 -
Stanislav Lobotka Galatasaray Actif 158 / 169 40% 1 10.09.2026 -
Rodrigo De Paul Inter Miami CF Actif 153 / 158 40% 1 24.08.2026 -